Time;durP1;ratioP1;P1;durP2;ratioP2;P2;SDS_P1;SDS_P2;PMS_P1;PMS_P2;Temp;Humidity;BMP_temperature;BMP_pressure;BME280_temperature;BME280_humidity;BME280_pressure;Samples;Min_cycle;Max_cycle;Signal;HPM_P1;HPM_P2
2023/12/07 00:00:18;;;;;;;34.73;18.87;;;;;;;;;;682075;28;1396;-76
2023/12/07 00:00:38;;;;;;;32.67;19.47;;;;;;;;;;682611;28;1058;-76
2023/12/07 00:00:59;;;;;;;32.17;19.52;;;;;;;;;;684651;28;4414;-76
2023/12/07 00:01:19;;;;;;;30.50;18.97;;;;;;;;;;687592;28;999;-76
2023/12/07 00:01:39;;;;;;;29.13;18.13;;;;;;;;;;689658;28;1122;-76
2023/12/07 00:01:59;;;;;;;26.90;17.58;;;;;;;;;;689032;28;885;-75
2023/12/07 00:02:19;;;;;;;26.57;17.50;;;;;;;;;;688729;28;1653;-75
2023/12/07 00:02:40;;;;;;;28.67;18.10;;;;;;;;;;690014;28;1116;-76
2023/12/07 00:03:00;;;;;;;28.83;17.97;;;;;;;;;;688818;28;1931;-76
2023/12/07 00:03:21;;;;;;;29.73;17.80;;;;;;;;;;690503;28;1176;-76
2023/12/07 00:03:41;;;;;;;27.43;17.27;;;;;;;;;;688904;28;1046;-76
2023/12/07 00:04:01;;;;;;;28.88;17.50;;;;;;;;;;685830;28;4522;-76
2023/12/07 00:04:22;;;;;;;28.50;17.30;;;;;;;;;;686335;28;1413;-76
2023/12/07 00:04:43;;;;;;;26.45;16.75;;;;;;;;;;686404;28;1247;-76
2023/12/07 00:05:03;;;;;;;25.40;16.73;;;;;;;;;;682781;28;2453;-76
2023/12/07 00:05:24;;;;;;;25.17;16.67;;;;;;;;;;682645;28;1011;-75
2023/12/07 00:05:44;;;;;;;22.90;16.57;;;;;;;;;;683539;28;1327;-76
2023/12/07 00:06:05;;;;;;;26.33;16.70;;;;;;;;;;687133;28;1481;-75
2023/12/07 00:06:26;;;;;;;26.92;17.05;;;;;;;;;;686273;28;1375;-76
2023/12/07 00:06:47;;;;;;;24.42;16.88;;;;;;;;;;687001;28;4501;-76
2023/12/07 00:07:08;;;;;;;24.30;16.90;;;;;;;;;;686588;28;1766;-75
2023/12/07 00:07:29;;;;;;;24.77;16.55;;;;;;;;;;687496;28;1377;-76
2023/12/07 00:07:50;;;;;;;23.77;16.20;;;;;;;;;;687577;28;1239;-76
2023/12/07 00:08:11;;;;;;;26.70;16.75;;;;;;;;;;687981;28;1837;-76
2023/12/07 00:08:32;;;;;;;25.20;16.15;;;;;;;;;;687279;28;1232;-76
2023/12/07 00:08:52;;;;;;;24.20;15.63;;;;;;;;;;687889;28;1906;-76
2023/12/07 00:09:13;;;;;;;23.35;15.73;;;;;;;;;;687248;28;1949;-76
2023/12/07 00:09:34;;;;;;;25.30;15.70;;;;;;;;;;685309;28;1171;-77
2023/12/07 00:09:54;;;;;;;24.23;15.52;;;;;;;;;;686846;28;4251;-76
2023/12/07 00:10:15;;;;;;;22.83;15.95;;;;;;;;;;687293;28;1031;-76
2023/12/07 00:10:35;;;;;;;23.20;15.90;;;;;;;;;;686824;28;1117;-76
2023/12/07 00:10:55;;;;;;;22.80;15.63;;;;;;;;;;687567;28;1149;-76
2023/12/07 00:11:16;;;;;;;21.45;15.82;;;;;;;;;;684011;28;1752;-76
2023/12/07 00:11:37;;;;;;;23.57;15.97;;;;;;;;;;684738;28;1252;-76
2023/12/07 00:11:57;;;;;;;24.00;15.55;;;;;;;;;;681762;29;1102;-76
2023/12/07 00:12:18;;;;;;;26.13;16.03;;;;;;;;;;681886;28;2039;-76
2023/12/07 00:12:38;;;;;;;24.60;16.10;;;;;;;;;;682137;28;1340;-76
2023/12/07 00:12:58;;;;;;;26.05;16.35;;;;;;;;;;684694;28;4438;-76
2023/12/07 00:13:18;;;;;;;24.83;16.30;;;;;;;;;;687526;28;1485;-76
2023/12/07 00:13:39;;;;;;;26.37;16.33;;;;;;;;;;684816;28;1030;-76
2023/12/07 00:13:59;;;;;;;26.25;15.85;;;;;;;;;;687758;28;1216;-76
2023/12/07 00:14:19;;;;;;;23.30;15.57;;;;;;;;;;684534;28;1242;-76
2023/12/07 00:14:39;;;;;;;23.77;16.20;;;;;;;;;;683615;28;1161;-76
2023/12/07 00:15:00;;;;;;;24.10;15.63;;;;;;;;;;684645;28;1331;-76
2023/12/07 00:15:20;;;;;;;23.93;15.80;;;;;;;;;;683837;28;2847;-76
2023/12/07 00:15:40;;;;;;;24.10;15.40;;;;;;;;;;686063;28;1359;-76
2023/12/07 00:16:00;;;;;;;24.53;15.53;;;;;;;;;;685983;28;4305;-75
2023/12/07 00:16:21;;;;;;;25.67;16.10;;;;;;;;;;687266;28;1078;-77
2023/12/07 00:16:41;;;;;;;24.93;16.17;;;;;;;;;;686318;28;1200;-77
2023/12/07 00:17:01;;;;;;;25.43;16.60;;;;;;;;;;685024;28;1276;-77
2023/12/07 00:17:22;;;;;;;24.65;15.95;;;;;;;;;;687402;28;1188;-76
2023/12/07 00:17:42;;;;;;;24.37;15.40;;;;;;;;;;683873;28;1299;-76
2023/12/07 00:18:03;;;;;;;25.02;15.95;;;;;;;;;;683444;28;1919;-75
2023/12/07 00:18:23;;;;;;;25.53;16.70;;;;;;;;;;683259;28;1181;-76
2023/12/07 00:18:43;;;;;;;22.80;16.13;;;;;;;;;;683175;28;4374;-77
2023/12/07 00:19:04;;;;;;;21.80;15.10;;;;;;;;;;683481;28;1879;-76
2023/12/07 00:19:24;;;;;;;23.07;16.10;;;;;;;;;;687650;28;1425;-76
2023/12/07 00:19:44;;;;;;;24.20;16.23;;;;;;;;;;690195;28;1382;-76
2023/12/07 00:20:05;;;;;;;26.30;16.03;;;;;;;;;;688709;28;2408;-76
2023/12/07 00:20:25;;;;;;;25.50;15.82;;;;;;;;;;689149;28;3351;-76
2023/12/07 00:20:45;;;;;;;24.03;15.97;;;;;;;;;;687589;28;1370;-76
2023/12/07 00:21:07;;;;;;;24.43;15.80;;;;;;;;;;686080;28;2858;-76
2023/12/07 00:21:28;;;;;;;24.73;15.73;;;;;;;;;;683173;28;1288;-76
2023/12/07 00:21:48;;;;;;;24.90;16.30;;;;;;;;;;682608;28;4299;-76
2023/12/07 00:22:08;;;;;;;22.40;15.60;;;;;;;;;;682995;28;2280;-77
2023/12/07 00:22:29;;;;;;;23.45;15.63;;;;;;;;;;686021;28;1307;-76
2023/12/07 00:22:49;;;;;;;25.07;15.73;;;;;;;;;;687958;28;1324;-76
2023/12/07 00:23:09;;;;;;;24.67;15.77;;;;;;;;;;682968;28;1097;-76
2023/12/07 00:23:29;;;;;;;22.90;15.40;;;;;;;;;;690744;28;1150;-76
2023/12/07 00:23:49;;;;;;;23.77;15.73;;;;;;;;;;690457;28;1235;-76
2023/12/07 00:24:10;;;;;;;25.90;16.43;;;;;;;;;;689900;28;1398;-76
2023/12/07 00:24:30;;;;;;;23.77;16.00;;;;;;;;;;689945;28;1196;-76
2023/12/07 00:24:50;;;;;;;24.17;15.30;;;;;;;;;;689370;28;4437;-76
2023/12/07 00:25:11;;;;;;;24.42;15.43;;;;;;;;;;686139;28;1955;-76
2023/12/07 00:25:31;;;;;;;24.13;15.10;;;;;;;;;;684772;28;1201;-76
2023/12/07 00:25:51;;;;;;;22.20;15.10;;;;;;;;;;686606;28;1320;-76
2023/12/07 00:26:12;;;;;;;22.50;15.63;;;;;;;;;;686026;28;2395;-76
2023/12/07 00:26:32;;;;;;;22.87;15.73;;;;;;;;;;687561;28;1224;-77
2023/12/07 00:26:52;;;;;;;23.80;15.50;;;;;;;;;;687840;28;1180;-76
2023/12/07 00:27:12;;;;;;;22.90;15.43;;;;;;;;;;683211;28;2460;-76
2023/12/07 00:27:33;;;;;;;22.70;15.43;;;;;;;;;;687761;28;1132;-76
2023/12/07 00:27:53;;;;;;;22.20;15.90;;;;;;;;;;687018;28;5000;-76
2023/12/07 00:28:14;;;;;;;22.38;15.90;;;;;;;;;;686503;28;1070;-76
2023/12/07 00:28:34;;;;;;;23.65;15.27;;;;;;;;;;690004;28;1108;-76
2023/12/07 00:28:54;;;;;;;24.23;15.37;;;;;;;;;;690342;28;1989;-76
2023/12/07 00:29:15;;;;;;;24.30;15.40;;;;;;;;;;689447;28;2342;-75
2023/12/07 00:29:36;;;;;;;22.65;15.10;;;;;;;;;;690426;28;1167;-76
2023/12/07 00:29:56;;;;;;;23.42;14.85;;;;;;;;;;689530;28;1334;-76
2023/12/07 00:30:17;;;;;;;23.48;15.43;;;;;;;;;;689262;28;1071;-76
2023/12/07 00:30:38;;;;;;;22.67;14.95;;;;;;;;;;689565;28;1468;-75
2023/12/07 00:30:58;;;;;;;23.83;15.03;;;;;;;;;;687167;28;4292;-76
2023/12/07 00:31:20;;;;;;;24.37;15.50;;;;;;;;;;685670;28;2353;-75
2023/12/07 00:31:40;;;;;;;22.52;15.65;;;;;;;;;;684022;28;1287;-76
2023/12/07 00:32:01;;;;;;;24.17;15.65;;;;;;;;;;684860;28;1271;-76
2023/12/07 00:32:21;;;;;;;24.10;15.33;;;;;;;;;;684323;28;1110;-76
2023/12/07 00:32:43;;;;;;;22.65;15.60;;;;;;;;;;684266;28;1351;-75
2023/12/07 00:33:03;;;;;;;23.23;15.18;;;;;;;;;;684515;28;1125;-76
2023/12/07 00:33:24;;;;;;;21.13;14.67;;;;;;;;;;687745;28;1200;-76
2023/12/07 00:33:45;;;;;;;21.73;14.98;;;;;;;;;;688507;28;4529;-77
2023/12/07 00:34:05;;;;;;;22.42;15.02;;;;;;;;;;686499;28;1759;-76
2023/12/07 00:34:26;;;;;;;22.90;15.33;;;;;;;;;;687594;28;1327;-76
2023/12/07 00:34:46;;;;;;;23.00;14.93;;;;;;;;;;687236;28;1383;-75
2023/12/07 00:35:07;;;;;;;22.17;15.17;;;;;;;;;;686589;28;2042;-76
2023/12/07 00:35:28;;;;;;;24.00;15.27;;;;;;;;;;683672;28;1209;-76
2023/12/07 00:35:49;;;;;;;23.95;15.70;;;;;;;;;;684494;28;1204;-76
2023/12/07 00:36:10;;;;;;;23.83;15.55;;;;;;;;;;686227;28;1692;-76
2023/12/07 00:36:30;;;;;;;22.27;15.60;;;;;;;;;;686564;28;1196;-76
2023/12/07 00:36:50;;;;;;;20.87;15.13;;;;;;;;;;688162;28;4329;-76
2023/12/07 00:37:10;;;;;;;20.67;14.65;;;;;;;;;;686886;28;1751;-76
2023/12/07 00:37:31;;;;;;;21.40;14.60;;;;;;;;;;688751;28;1179;-76
2023/12/07 00:37:51;;;;;;;21.63;14.90;;;;;;;;;;689283;28;1152;-76
2023/12/07 00:38:11;;;;;;;22.67;15.23;;;;;;;;;;689256;28;1084;-76
2023/12/07 00:38:32;;;;;;;21.17;15.00;;;;;;;;;;689769;28;1250;-76
2023/12/07 00:38:52;;;;;;;21.00;14.48;;;;;;;;;;690472;28;5356;-76
2023/12/07 00:39:12;;;;;;;21.50;14.60;;;;;;;;;;691534;28;1697;-76
2023/12/07 00:39:33;;;;;;;20.73;14.87;;;;;;;;;;690946;28;1183;-76
2023/12/07 00:39:53;;;;;;;21.08;14.93;;;;;;;;;;688664;28;5105;-76
2023/12/07 00:40:14;;;;;;;25.10;15.60;;;;;;;;;;689881;28;1083;-76
2023/12/07 00:40:36;;;;;;;24.17;15.57;;;;;;;;;;690910;28;1405;-77
2023/12/07 00:40:56;;;;;;;21.95;15.05;;;;;;;;;;686499;28;1367;-76
2023/12/07 00:41:17;;;;;;;21.57;14.90;;;;;;;;;;686954;28;1038;-76
2023/12/07 00:41:37;;;;;;;22.07;14.50;;;;;;;;;;687976;28;1167;-76
2023/12/07 00:41:57;;;;;;;22.33;14.75;;;;;;;;;;686635;28;1240;-75
2023/12/07 00:42:18;;;;;;;23.80;15.47;;;;;;;;;;685356;28;1383;-76
2023/12/07 00:42:38;;;;;;;22.93;15.00;;;;;;;;;;687815;28;1376;-76
2023/12/07 00:42:58;;;;;;;21.53;14.93;;;;;;;;;;684678;28;4380;-76
2023/12/07 00:43:18;;;;;;;24.73;16.33;;;;;;;;;;684882;28;999;-76
2023/12/07 00:43:39;;;;;;;24.60;15.63;;;;;;;;;;685547;28;1212;-76
2023/12/07 00:43:59;;;;;;;22.88;14.93;;;;;;;;;;684687;28;1291;-76
2023/12/07 00:44:19;;;;;;;20.87;14.53;;;;;;;;;;687281;28;1121;-76
2023/12/07 00:44:40;;;;;;;21.80;15.00;;;;;;;;;;689800;28;1259;-76
2023/12/07 00:45:01;;;;;;;23.87;15.00;;;;;;;;;;690268;28;1274;-76
2023/12/07 00:45:21;;;;;;;21.98;14.50;;;;;;;;;;688161;28;1159;-77
2023/12/07 00:45:41;;;;;;;20.80;14.30;;;;;;;;;;687218;28;4440;-75
2023/12/07 00:46:02;;;;;;;20.60;14.40;;;;;;;;;;687805;28;1319;-76
2023/12/07 00:46:23;;;;;;;21.83;14.88;;;;;;;;;;686389;28;1260;-76
2023/12/07 00:46:43;;;;;;;21.80;15.20;;;;;;;;;;683661;28;1374;-76
2023/12/07 00:47:03;;;;;;;21.25;14.68;;;;;;;;;;683401;28;1418;-76
2023/12/07 00:47:24;;;;;;;21.10;14.80;;;;;;;;;;682741;28;1170;-76
2023/12/07 00:47:44;;;;;;;20.90;15.07;;;;;;;;;;686900;28;1184;-76
2023/12/07 00:48:04;;;;;;;20.50;14.50;;;;;;;;;;683918;28;1331;-75
2023/12/07 00:48:24;;;;;;;21.10;14.40;;;;;;;;;;685510;28;1331;-76
2023/12/07 00:48:45;;;;;;;20.23;14.30;;;;;;;;;;683893;28;4442;-76
2023/12/07 00:49:05;;;;;;;21.77;14.57;;;;;;;;;;687162;28;1442;-76
2023/12/07 00:49:25;;;;;;;22.37;14.83;;;;;;;;;;687494;28;1219;-76
2023/12/07 00:49:46;;;;;;;22.77;14.80;;;;;;;;;;687301;28;1188;-76
2023/12/07 00:50:06;;;;;;;24.95;15.15;;;;;;;;;;684027;28;1427;-76
2023/12/07 00:50:26;;;;;;;25.40;15.87;;;;;;;;;;682688;28;1397;-76
2023/12/07 00:50:47;;;;;;;22.90;15.80;;;;;;;;;;685182;28;1611;-77
2023/12/07 00:51:07;;;;;;;21.95;15.13;;;;;;;;;;683725;28;1170;-76
2023/12/07 00:51:28;;;;;;;21.83;14.95;;;;;;;;;;687786;28;1284;-76
2023/12/07 00:51:48;;;;;;;21.60;14.63;;;;;;;;;;684991;28;4292;-76
2023/12/07 00:52:08;;;;;;;22.27;15.05;;;;;;;;;;686847;28;1090;-76
2023/12/07 00:52:29;;;;;;;22.97;15.40;;;;;;;;;;685734;28;1353;-76
2023/12/07 00:52:49;;;;;;;24.23;15.17;;;;;;;;;;688085;28;1064;-76
2023/12/07 00:53:09;;;;;;;23.88;15.18;;;;;;;;;;687373;28;1046;-76
2023/12/07 00:53:29;;;;;;;26.40;15.83;;;;;;;;;;687917;28;1172;-76
2023/12/07 00:53:50;;;;;;;26.53;16.83;;;;;;;;;;690620;28;1378;-76
2023/12/07 00:54:10;;;;;;;32.08;17.38;;;;;;;;;;689752;28;1001;-76
2023/12/07 00:54:30;;;;;;;28.90;17.00;;;;;;;;;;690451;28;1211;-76
2023/12/07 00:54:50;;;;;;;26.50;16.40;;;;;;;;;;688843;28;4299;-76
2023/12/07 00:55:11;;;;;;;22.88;14.93;;;;;;;;;;689745;28;1317;-76
2023/12/07 00:55:31;;;;;;;25.10;15.00;;;;;;;;;;688014;28;1171;-76
2023/12/07 00:55:51;;;;;;;25.63;15.43;;;;;;;;;;688058;28;1161;-76
2023/12/07 00:56:11;;;;;;;25.17;16.00;;;;;;;;;;683913;28;1197;-76
2023/12/07 00:56:32;;;;;;;26.20;15.43;;;;;;;;;;682394;28;750;-76
2023/12/07 00:56:52;;;;;;;24.27;15.27;;;;;;;;;;683512;28;1294;-76
2023/12/07 00:57:12;;;;;;;23.20;15.03;;;;;;;;;;683424;28;1041;-77
2023/12/07 00:57:32;;;;;;;22.48;14.77;;;;;;;;;;684593;28;1189;-76
2023/12/07 00:57:53;;;;;;;23.97;15.40;;;;;;;;;;683101;28;4295;-76
2023/12/07 00:58:13;;;;;;;25.57;15.47;;;;;;;;;;684286;28;1016;-76
2023/12/07 00:58:34;;;;;;;24.52;15.50;;;;;;;;;;683159;28;1209;-77
2023/12/07 00:58:54;;;;;;;27.75;16.00;;;;;;;;;;687441;28;1259;-77
2023/12/07 00:59:14;;;;;;;27.13;15.97;;;;;;;;;;686404;28;1096;-77
2023/12/07 00:59:34;;;;;;;25.70;16.40;;;;;;;;;;690816;28;1180;-76
2023/12/07 00:59:55;;;;;;;26.30;16.03;;;;;;;;;;690271;28;1145;-76
2023/12/07 01:00:15;;;;;;;26.93;16.17;;;;;;;;;;687142;28;1272;-76
2023/12/07 01:00:37;;;;;;;28.90;16.07;;;;;;;;;;687004;28;1114;-76
2023/12/07 01:00:57;;;;;;;30.02;15.70;;;;;;;;;;684627;28;4305;-76
2023/12/07 01:01:17;;;;;;;29.93;16.40;;;;;;;;;;684516;28;982;-76
2023/12/07 01:01:38;;;;;;;28.63;16.57;;;;;;;;;;685583;28;1169;-76
2023/12/07 01:02:07;;;;;;;28.50;17.02;;;;;;;;;;685161;28;1113;-76
2023/12/07 01:02:28;;;;;;;25.00;15.63;;;;;;;;;;686412;28;1256;-76
2023/12/07 01:02:48;;;;;;;26.03;15.33;;;;;;;;;;689493;28;1310;-76
2023/12/07 01:03:08;;;;;;;28.52;16.23;;;;;;;;;;689826;28;1019;-76
2023/12/07 01:03:29;;;;;;;29.97;16.77;;;;;;;;;;687828;28;1380;-76
2023/12/07 01:03:50;;;;;;;34.90;17.88;;;;;;;;;;687508;28;4315;-76
2023/12/07 01:04:10;;;;;;;30.00;17.90;;;;;;;;;;687319;28;1434;-76
2023/12/07 01:04:31;;;;;;;28.55;16.85;;;;;;;;;;688075;28;1417;-76
2023/12/07 01:04:51;;;;;;;28.27;16.50;;;;;;;;;;687434;28;1329;-76
2023/12/07 01:05:11;;;;;;;26.13;16.40;;;;;;;;;;687077;28;986;-76
2023/12/07 01:05:32;;;;;;;26.93;16.53;;;;;;;;;;686412;28;1283;-75
2023/12/07 01:05:52;;;;;;;25.33;15.63;;;;;;;;;;687002;28;1360;-75
2023/12/07 01:06:12;;;;;;;27.07;15.97;;;;;;;;;;685799;28;1012;-76
2023/12/07 01:06:32;;;;;;;27.15;16.42;;;;;;;;;;685561;28;1376;-76
2023/12/07 01:06:53;;;;;;;28.43;16.27;;;;;;;;;;684488;28;4286;-76
2023/12/07 01:07:13;;;;;;;25.67;15.00;;;;;;;;;;685250;28;1406;-76
2023/12/07 01:07:33;;;;;;;25.27;15.33;;;;;;;;;;685483;28;1205;-76
2023/12/07 01:07:53;;;;;;;28.20;16.85;;;;;;;;;;688093;28;1231;-75
2023/12/07 01:08:14;;;;;;;26.30;16.00;;;;;;;;;;686896;28;1078;-75
2023/12/07 01:08:34;;;;;;;25.10;16.13;;;;;;;;;;690800;28;1258;-76
2023/12/07 01:08:54;;;;;;;25.73;16.03;;;;;;;;;;691953;28;1973;-75
2023/12/07 01:09:14;;;;;;;24.10;16.03;;;;;;;;;;692155;28;990;-75
2023/12/07 01:09:36;;;;;;;24.20;16.17;;;;;;;;;;691685;28;1172;-76
2023/12/07 01:09:56;;;;;;;25.50;15.70;;;;;;;;;;688643;28;4310;-76
2023/12/07 01:10:16;;;;;;;27.63;16.07;;;;;;;;;;689238;28;1012;-76
2023/12/07 01:10:37;;;;;;;26.70;16.08;;;;;;;;;;690772;28;1251;-75
2023/12/07 01:10:57;;;;;;;23.67;15.17;;;;;;;;;;689266;28;1164;-76
2023/12/07 01:11:17;;;;;;;23.40;15.40;;;;;;;;;;689675;28;1020;-75
2023/12/07 01:11:37;;;;;;;24.42;15.40;;;;;;;;;;690063;28;1136;-76
2023/12/07 01:11:58;;;;;;;23.17;15.27;;;;;;;;;;687614;28;1308;-77
2023/12/07 01:12:18;;;;;;;24.33;15.43;;;;;;;;;;684376;28;1263;-76
2023/12/07 01:12:38;;;;;;;24.05;15.25;;;;;;;;;;685055;28;1153;-76
2023/12/07 01:12:59;;;;;;;23.23;15.17;;;;;;;;;;684144;28;4270;-75
2023/12/07 01:13:19;;;;;;;25.20;15.50;;;;;;;;;;684274;28;1268;-75
2023/12/07 01:13:39;;;;;;;23.45;15.23;;;;;;;;;;687938;28;1231;-76
2023/12/07 01:13:59;;;;;;;23.47;15.10;;;;;;;;;;690420;28;1159;-76
2023/12/07 01:14:20;;;;;;;24.83;15.30;;;;;;;;;;691265;28;1254;-75
2023/12/07 01:14:41;;;;;;;24.52;15.05;;;;;;;;;;690553;28;1112;-75
2023/12/07 01:15:01;;;;;;;23.00;15.40;;;;;;;;;;690009;28;1442;-76
2023/12/07 01:15:21;;;;;;;24.50;15.53;;;;;;;;;;689308;28;1349;-76
2023/12/07 01:15:41;;;;;;;24.13;15.50;;;;;;;;;;688186;28;4430;-75
2023/12/07 01:16:02;;;;;;;24.15;15.25;;;;;;;;;;689269;28;1301;-76
2023/12/07 01:16:22;;;;;;;22.63;14.93;;;;;;;;;;687022;28;3425;-76
2023/12/07 01:16:42;;;;;;;23.10;15.33;;;;;;;;;;689020;28;1405;-75
2023/12/07 01:17:03;;;;;;;22.42;14.95;;;;;;;;;;687604;28;1121;-76
2023/12/07 01:17:23;;;;;;;25.13;14.95;;;;;;;;;;685937;28;1771;-76
2023/12/07 01:17:43;;;;;;;22.60;15.27;;;;;;;;;;686631;28;1153;-76
2023/12/07 01:18:04;;;;;;;21.77;14.87;;;;;;;;;;687233;28;1355;-76
2023/12/07 01:18:24;;;;;;;24.33;15.43;;;;;;;;;;686334;28;3169;-75
2023/12/07 01:18:44;;;;;;;24.60;15.43;;;;;;;;;;686660;28;4290;-76
2023/12/07 01:19:05;;;;;;;24.43;15.50;;;;;;;;;;687437;28;1330;-75
2023/12/07 01:19:25;;;;;;;25.88;16.02;;;;;;;;;;686783;28;1482;-76
2023/12/07 01:19:45;;;;;;;23.07;15.10;;;;;;;;;;685359;28;956;-75
2023/12/07 01:20:11;;;;;;;23.13;14.73;;;;;;;;;;685718;28;1034;-76
2023/12/07 01:20:32;;;;;;;24.30;15.15;;;;;;;;;;686189;28;1259;-75
2023/12/07 01:20:52;;;;;;;23.93;14.97;;;;;;;;;;685018;28;1412;-76
2023/12/07 01:21:12;;;;;;;23.10;15.07;;;;;;;;;;685401;28;1794;-76
2023/12/07 01:21:32;;;;;;;22.77;14.50;;;;;;;;;;686795;28;1229;-76
2023/12/07 01:21:53;;;;;;;21.57;14.70;;;;;;;;;;684677;28;4617;-75
2023/12/07 01:22:13;;;;;;;24.13;15.50;;;;;;;;;;683329;28;1237;-76
2023/12/07 01:22:33;;;;;;;24.15;15.70;;;;;;;;;;685531;28;1208;-76
2023/12/07 01:22:53;;;;;;;24.60;15.53;;;;;;;;;;681213;29;1529;-75
2023/12/07 01:23:14;;;;;;;24.30;15.70;;;;;;;;;;680932;28;2819;-76
2023/12/07 01:23:34;;;;;;;24.65;16.10;;;;;;;;;;680835;29;1618;-75
2023/12/07 01:23:54;;;;;;;25.60;15.63;;;;;;;;;;683282;28;1205;-75
2023/12/07 01:24:15;;;;;;;27.07;15.27;;;;;;;;;;683927;28;1797;-76
2023/12/07 01:24:35;;;;;;;25.02;15.30;;;;;;;;;;687705;28;1341;-75
2023/12/07 01:24:55;;;;;;;24.83;15.53;;;;;;;;;;690060;28;4261;-75
2023/12/07 01:25:21;;;;;;;25.37;15.80;;;;;;;;;;687693;28;2274;-76
2023/12/07 01:25:41;;;;;;;24.40;15.43;;;;;;;;;;690050;28;1168;-76
2023/12/07 01:26:02;;;;;;;24.33;15.48;;;;;;;;;;689688;28;1187;-75
2023/12/07 01:26:22;;;;;;;22.83;15.53;;;;;;;;;;689680;28;1696;-76
2023/12/07 01:26:43;;;;;;;24.57;16.00;;;;;;;;;;690585;28;1234;-75
2023/12/07 01:27:03;;;;;;;24.87;15.87;;;;;;;;;;685942;28;1133;-75
2023/12/07 01:27:23;;;;;;;27.00;15.83;;;;;;;;;;686019;28;1331;-76
2023/12/07 01:27:44;;;;;;;26.42;15.73;;;;;;;;;;686842;28;4341;-75
2023/12/07 01:28:04;;;;;;;25.80;15.93;;;;;;;;;;685417;28;1433;-76
2023/12/07 01:28:24;;;;;;;23.80;15.85;;;;;;;;;;687095;28;1501;-75
2023/12/07 01:28:44;;;;;;;23.00;15.20;;;;;;;;;;688393;28;1932;-76
2023/12/07 01:29:05;;;;;;;24.43;15.57;;;;;;;;;;690616;28;1239;-75
2023/12/07 01:29:25;;;;;;;27.10;15.98;;;;;;;;;;689049;28;2326;-76
2023/12/07 01:29:45;;;;;;;24.17;15.50;;;;;;;;;;688934;28;1395;-76
2023/12/07 01:30:06;;;;;;;24.63;15.07;;;;;;;;;;686739;28;1374;-76
2023/12/07 01:30:26;;;;;;;24.17;15.77;;;;;;;;;;689052;28;1810;-75
2023/12/07 01:30:47;;;;;;;26.20;15.80;;;;;;;;;;691785;28;4243;-76
2023/12/07 01:31:07;;;;;;;27.00;16.13;;;;;;;;;;691604;28;1390;-75
2023/12/07 01:31:27;;;;;;;23.93;15.53;;;;;;;;;;691779;28;2303;-77
2023/12/07 01:31:47;;;;;;;23.90;15.60;;;;;;;;;;690413;28;1288;-76
2023/12/07 01:32:08;;;;;;;23.97;15.43;;;;;;;;;;690735;28;997;-76
2023/12/07 01:32:29;;;;;;;24.27;15.55;;;;;;;;;;686723;28;1121;-76
2023/12/07 01:32:49;;;;;;;24.08;15.45;;;;;;;;;;688199;28;1232;-76
2023/12/07 01:33:09;;;;;;;22.83;15.17;;;;;;;;;;687077;28;1925;-76
2023/12/07 01:33:30;;;;;;;24.77;15.30;;;;;;;;;;687749;28;1140;-76
2023/12/07 01:33:50;;;;;;;24.65;15.65;;;;;;;;;;687033;28;4344;-76
2023/12/07 01:34:10;;;;;;;23.50;14.80;;;;;;;;;;687072;28;2464;-76
2023/12/07 01:34:31;;;;;;;23.40;14.73;;;;;;;;;;690539;28;1258;-76
2023/12/07 01:34:51;;;;;;;23.13;14.60;;;;;;;;;;690572;28;1044;-76
2023/12/07 01:35:12;;;;;;;22.17;14.83;;;;;;;;;;689609;28;1868;-75
2023/12/07 01:35:32;;;;;;;23.17;15.23;;;;;;;;;;687139;28;1528;-76
2023/12/07 01:35:52;;;;;;;22.77;14.90;;;;;;;;;;687491;28;1290;-76
2023/12/07 01:36:13;;;;;;;21.88;14.70;;;;;;;;;;686621;28;1442;-75
2023/12/07 01:36:33;;;;;;;22.57;14.80;;;;;;;;;;687875;28;1144;-76
2023/12/07 01:36:53;;;;;;;22.03;14.73;;;;;;;;;;687249;28;4292;-76
2023/12/07 01:37:13;;;;;;;21.83;14.52;;;;;;;;;;687707;28;1203;-75
2023/12/07 01:37:34;;;;;;;24.23;15.00;;;;;;;;;;691476;28;1231;-76
2023/12/07 01:37:54;;;;;;;23.48;15.45;;;;;;;;;;688414;28;1493;-76
2023/12/07 01:38:15;;;;;;;22.93;14.90;;;;;;;;;;690064;28;1810;-76
2023/12/07 01:38:35;;;;;;;22.33;14.60;;;;;;;;;;690520;28;1212;-76
2023/12/07 01:38:55;;;;;;;22.00;14.47;;;;;;;;;;690416;28;5604;-76
2023/12/07 01:39:15;;;;;;;22.50;14.53;;;;;;;;;;689585;28;2396;-76
2023/12/07 01:39:36;;;;;;;22.87;14.80;;;;;;;;;;687676;28;1145;-75
2023/12/07 01:39:56;;;;;;;21.80;14.70;;;;;;;;;;686984;28;4296;-75
2023/12/07 01:40:16;;;;;;;21.73;14.77;;;;;;;;;;687421;28;2310;-75
2023/12/07 01:40:37;;;;;;;22.73;15.05;;;;;;;;;;688015;28;1252;-75
2023/12/07 01:40:57;;;;;;;22.23;15.27;;;;;;;;;;687440;28;1034;-76
2023/12/07 01:41:18;;;;;;;21.73;14.98;;;;;;;;;;687224;28;2304;-76
2023/12/07 01:41:39;;;;;;;23.53;15.63;;;;;;;;;;686349;28;1456;-76
2023/12/07 01:41:59;;;;;;;22.50;15.73;;;;;;;;;;690315;28;1176;-75
2023/12/07 01:42:19;;;;;;;23.60;16.00;;;;;;;;;;688112;28;2262;-76
2023/12/07 01:42:39;;;;;;;22.73;14.73;;;;;;;;;;687197;28;1247;-75
2023/12/07 01:43:00;;;;;;;21.27;14.63;;;;;;;;;;686684;28;4253;-75
2023/12/07 01:43:22;;;;;;;23.97;15.57;;;;;;;;;;684667;28;1770;-76
2023/12/07 01:43:46;;;;;;;25.00;15.95;;;;;;;;;;684915;28;1657;-75
2023/12/07 01:44:06;;;;;;;22.55;15.65;;;;;;;;;;686644;28;1271;-76
2023/12/07 01:44:27;;;;;;;23.17;15.93;;;;;;;;;;683649;28;1850;-76
2023/12/07 01:44:48;;;;;;;22.35;15.00;;;;;;;;;;684622;28;1216;-76
2023/12/07 01:45:08;;;;;;;24.30;15.45;;;;;;;;;;684520;28;1145;-75
2023/12/07 01:45:28;;;;;;;24.10;15.10;;;;;;;;;;685112;28;2316;-76
2023/12/07 01:45:53;;;;;;;22.97;14.53;;;;;;;;;;687441;28;4533;-76
2023/12/07 01:46:14;;;;;;;23.90;15.40;;;;;;;;;;687534;28;1843;-76
2023/12/07 01:46:35;;;;;;;23.33;14.75;;;;;;;;;;688116;28;1332;-76
2023/12/07 01:46:55;;;;;;;22.07;14.47;;;;;;;;;;690732;28;1188;-76
2023/12/07 01:47:15;;;;;;;23.35;14.93;;;;;;;;;;689453;28;1698;-76
2023/12/07 01:47:36;;;;;;;22.07;14.77;;;;;;;;;;690693;28;1177;-77
2023/12/07 01:47:58;;;;;;;21.43;14.43;;;;;;;;;;690378;28;979;-76
2023/12/07 01:48:19;;;;;;;22.55;14.77;;;;;;;;;;688462;28;1775;-76
2023/12/07 01:48:39;;;;;;;22.38;14.48;;;;;;;;;;692360;28;1196;-76
2023/12/07 01:49:00;;;;;;;22.33;14.60;;;;;;;;;;692876;28;4208;-76
2023/12/07 01:49:20;;;;;;;21.63;14.60;;;;;;;;;;688808;28;1842;-76
2023/12/07 01:49:41;;;;;;;21.73;14.67;;;;;;;;;;689185;28;1208;-76
2023/12/07 01:50:04;;;;;;;21.73;14.40;;;;;;;;;;690158;28;1208;-76
2023/12/07 01:50:25;;;;;;;23.08;14.52;;;;;;;;;;688898;28;1184;-76
2023/12/07 01:50:46;;;;;;;21.95;14.50;;;;;;;;;;689702;28;1299;-76
2023/12/07 01:51:06;;;;;;;23.60;15.10;;;;;;;;;;690008;28;1298;-75
2023/12/07 01:51:27;;;;;;;23.67;15.25;;;;;;;;;;689409;28;1579;-75
2023/12/07 01:51:47;;;;;;;22.60;15.20;;;;;;;;;;690386;28;4345;-75
2023/12/07 01:52:08;;;;;;;23.33;15.53;;;;;;;;;;690663;28;1393;-75
2023/12/07 01:52:29;;;;;;;24.35;15.38;;;;;;;;;;689602;28;1814;-74
2023/12/07 01:52:51;;;;;;;24.27;15.43;;;;;;;;;;690674;28;1238;-75
2023/12/07 01:53:12;;;;;;;23.05;15.43;;;;;;;;;;689822;28;1183;-74
2023/12/07 01:53:33;;;;;;;23.90;15.30;;;;;;;;;;687377;28;1599;-75
2023/12/07 01:53:54;;;;;;;24.83;15.90;;;;;;;;;;687359;28;1262;-75
2023/12/07 01:54:14;;;;;;;25.73;16.30;;;;;;;;;;686392;28;2239;-74
2023/12/07 01:54:35;;;;;;;24.00;15.60;;;;;;;;;;686656;28;1049;-75
2023/12/07 01:54:55;;;;;;;26.75;16.35;;;;;;;;;;685385;28;4264;-75
2023/12/07 01:55:16;;;;;;;26.77;16.67;;;;;;;;;;685275;28;1526;-76
2023/12/07 01:55:36;;;;;;;25.65;16.20;;;;;;;;;;690496;28;1053;-75
2023/12/07 01:55:57;;;;;;;26.15;16.02;;;;;;;;;;690190;28;1149;-75
2023/12/07 01:56:18;;;;;;;25.30;16.00;;;;;;;;;;690391;28;1460;-75
2023/12/07 01:56:38;;;;;;;24.20;15.37;;;;;;;;;;690112;28;1172;-75
2023/12/07 01:56:58;;;;;;;24.23;15.90;;;;;;;;;;689508;28;1357;-75
2023/12/07 01:57:19;;;;;;;23.67;15.77;;;;;;;;;;686594;28;1766;-75
2023/12/07 01:57:40;;;;;;;24.17;15.88;;;;;;;;;;687364;28;1204;-75
2023/12/07 01:58:00;;;;;;;25.83;16.40;;;;;;;;;;685433;28;4257;-76
2023/12/07 01:58:21;;;;;;;25.52;16.25;;;;;;;;;;685516;28;1604;-76
2023/12/07 01:58:41;;;;;;;23.97;15.70;;;;;;;;;;686650;28;1299;-75
2023/12/07 01:59:03;;;;;;;23.10;16.08;;;;;;;;;;683873;28;1253;-75
2023/12/07 01:59:24;;;;;;;22.65;15.88;;;;;;;;;;683189;28;2465;-75
2023/12/07 01:59:44;;;;;;;25.00;15.27;;;;;;;;;;681978;28;1216;-75
2023/12/07 02:00:05;;;;;;;25.47;15.47;;;;;;;;;;687342;28;1154;-75
2023/12/07 02:00:27;;;;;;;24.70;16.13;;;;;;;;;;686323;28;2335;-75
2023/12/07 02:00:48;;;;;;;24.65;16.13;;;;;;;;;;687224;28;4505;-76
2023/12/07 02:01:11;;;;;;;25.25;16.40;;;;;;;;;;689584;28;1164;-76
2023/12/07 02:01:31;;;;;;;25.83;16.17;;;;;;;;;;687501;28;1527;-75
2023/12/07 02:01:51;;;;;;;25.83;16.43;;;;;;;;;;689457;28;1066;-75
2023/12/07 02:02:12;;;;;;;24.77;16.13;;;;;;;;;;688893;28;1789;-75
2023/12/07 02:02:32;;;;;;;23.67;15.63;;;;;;;;;;685889;28;1597;-75
2023/12/07 02:02:54;;;;;;;24.13;15.75;;;;;;;;;;685215;28;896;-75
2023/12/07 02:03:16;;;;;;;24.50;15.87;;;;;;;;;;684151;28;1867;-76